createdAt,value
2019-04-05T00:01:35.946Z,6.00
2019-04-05T00:04:07.630Z,6.00
2019-04-05T00:06:38.156Z,6.10
2019-04-05T00:09:08.717Z,6.10
2019-04-05T00:11:39.290Z,6.10
2019-04-05T00:14:09.872Z,6.10
2019-04-05T00:16:40.444Z,6.10
2019-04-05T00:19:11.107Z,6.20
2019-04-05T00:21:41.760Z,6.20
2019-04-05T00:24:12.256Z,6.20
2019-04-05T00:26:42.829Z,6.20
2019-04-05T00:29:13.412Z,6.20
2019-04-05T00:31:43.985Z,6.20
2019-04-05T00:34:14.557Z,6.20
2019-04-05T00:36:45.167Z,6.20
2019-04-05T00:39:15.811Z,6.20
2019-04-05T00:41:46.440Z,6.20
2019-04-05T00:44:16.974Z,6.20
2019-04-05T00:46:47.553Z,6.30
2019-04-05T00:49:18.107Z,6.30
2019-04-05T00:51:48.695Z,6.30
2019-04-05T00:54:19.248Z,6.20
2019-04-05T00:56:49.753Z,6.20
2019-04-05T00:59:20.320Z,6.20
2019-04-05T01:01:50.903Z,6.10
2019-04-05T01:04:21.488Z,6.20
2019-04-05T01:06:51.985Z,6.30
2019-04-05T01:09:22.640Z,6.20
2019-04-05T01:11:53.212Z,6.30
2019-04-05T01:14:24.460Z,6.20
2019-04-05T01:16:55.049Z,6.20
2019-04-05T01:19:28.785Z,6.10
2019-04-05T01:22:02.244Z,6.20
2019-04-05T01:24:32.928Z,6.20
2019-04-05T01:27:05.180Z,6.20
2019-04-05T01:29:35.803Z,6.20
2019-04-05T01:32:06.315Z,6.20
2019-04-05T01:34:37.060Z,6.20
2019-04-05T01:37:07.633Z,6.20
2019-04-05T01:39:38.195Z,6.30
2019-04-05T01:42:08.734Z,6.40
2019-04-05T01:44:39.522Z,6.30
2019-04-05T01:47:10.010Z,6.40
2019-04-05T01:49:40.548Z,6.30
2019-04-05T01:52:11.089Z,6.40
2019-04-05T01:54:41.673Z,6.40
2019-04-05T01:57:12.246Z,6.40
2019-04-05T01:59:42.837Z,6.40
2019-04-05T02:02:13.381Z,6.50
2019-04-05T02:04:43.948Z,6.50
2019-04-05T02:07:15.529Z,6.40
2019-04-05T02:09:46.123Z,6.30
2019-04-05T02:12:16.756Z,6.40
2019-04-05T02:14:47.424Z,6.50
2019-04-05T02:17:17.908Z,6.50
2019-04-05T02:19:48.419Z,6.50
2019-04-05T02:22:18.946Z,6.50
2019-04-05T02:24:49.440Z,6.40
2019-04-05T02:27:20.002Z,6.50
2019-04-05T02:29:50.509Z,6.60
2019-04-05T02:32:21.104Z,6.60
2019-04-05T02:34:51.656Z,6.60
2019-04-05T02:37:22.152Z,6.60
2019-04-05T02:39:52.705Z,6.60
2019-04-05T02:42:23.425Z,6.60
2019-04-05T02:44:55.108Z,6.60
2019-04-05T02:47:26.088Z,6.60
2019-04-05T02:49:57.588Z,6.60
2019-04-05T02:52:30.337Z,6.60
2019-04-05T02:55:01.202Z,6.70
2019-04-05T02:57:32.998Z,6.70
2019-04-05T03:00:03.611Z,6.60
2019-04-05T03:02:35.608Z,6.60
2019-04-05T03:05:06.612Z,6.50
2019-04-05T03:07:38.460Z,6.50
2019-04-05T03:10:09.059Z,6.50
2019-04-05T03:12:39.681Z,6.50
2019-04-05T03:15:11.361Z,6.50
2019-04-05T03:17:42.199Z,6.50
2019-04-05T03:20:12.754Z,6.50
2019-04-05T03:22:43.383Z,6.70
2019-04-05T03:25:13.873Z,6.60
2019-04-05T03:27:44.484Z,6.50
2019-04-05T03:30:15.139Z,6.70
2019-04-05T03:32:46.351Z,6.80
2019-04-05T03:35:17.020Z,6.70
2019-04-05T03:37:47.615Z,6.80
2019-04-05T03:40:18.214Z,6.80
2019-04-05T03:42:48.771Z,6.70
2019-04-05T03:45:19.305Z,6.70
2019-04-05T03:47:49.862Z,6.70
2019-04-05T03:50:20.417Z,6.60
2019-04-05T03:52:51.063Z,6.60
2019-04-05T03:55:21.942Z,6.60
2019-04-05T03:57:52.592Z,6.60
2019-04-05T04:03:12.261Z,6.60
2019-04-05T04:05:42.896Z,6.60
2019-04-05T04:08:13.494Z,6.60
2019-04-05T04:10:45.742Z,6.60
2019-04-05T04:13:16.594Z,6.60
2019-04-05T04:15:47.477Z,6.60
2019-04-05T04:18:18.144Z,6.60
2019-04-05T04:20:51.377Z,6.60
2019-04-05T04:23:25.496Z,6.70
2019-04-05T04:25:56.382Z,6.60
2019-04-05T04:28:28.126Z,6.70
2019-04-05T04:30:58.686Z,6.60
2019-04-05T04:33:29.902Z,6.60
2019-04-05T04:36:00.572Z,6.60
2019-04-05T04:38:31.364Z,6.60
2019-04-05T04:41:02.249Z,6.60
2019-04-05T04:43:32.774Z,6.60
2019-04-05T04:46:03.545Z,6.60
2019-04-05T04:48:34.098Z,5.70
2019-04-05T04:51:04.996Z,6.60
2019-04-05T04:53:36.024Z,6.60
2019-04-05T04:56:07.392Z,6.60
2019-04-05T04:58:38.121Z,6.60
2019-04-05T05:01:08.973Z,6.60
2019-04-05T05:03:39.512Z,6.60
2019-04-05T05:06:10.163Z,6.60
2019-04-05T05:08:40.880Z,6.60
2019-04-05T05:11:14.612Z,6.60
2019-04-05T05:13:43.797Z,6.60
2019-04-05T05:16:14.377Z,6.60
2019-04-05T05:18:45.035Z,6.60
2019-04-05T05:21:16.014Z,6.60
2019-04-05T05:23:46.900Z,6.60
2019-04-05T05:26:17.529Z,6.60
2019-04-05T05:28:48.223Z,6.60
2019-04-05T05:31:18.885Z,6.60
2019-04-05T05:33:49.685Z,6.60
2019-04-05T05:36:20.893Z,6.60
2019-04-05T05:38:51.578Z,6.70
2019-04-05T05:41:22.048Z,6.70
2019-04-05T05:43:52.606Z,6.70
2019-04-05T05:46:23.101Z,6.70
2019-04-05T05:48:53.557Z,6.70
2019-04-05T05:51:24.059Z,6.70
2019-04-05T05:53:54.612Z,6.80
2019-04-05T05:56:25.134Z,6.80
2019-04-05T05:58:59.358Z,6.80
2019-04-05T06:01:28.080Z,6.90
2019-04-05T06:03:58.617Z,6.90
2019-04-05T06:06:29.143Z,6.90
2019-04-05T06:08:59.657Z,7.00
2019-04-05T06:11:31.321Z,7.00
2019-04-05T06:14:01.848Z,7.00
2019-04-05T06:16:45.566Z,7.10
2019-04-05T06:19:04.709Z,7.10
2019-04-05T06:21:35.270Z,7.20
2019-04-05T06:24:05.858Z,7.20
2019-04-05T06:26:36.652Z,7.20
2019-04-05T06:29:08.190Z,7.20
2019-04-05T06:31:38.756Z,7.30
2019-04-05T06:34:09.359Z,7.30
2019-04-05T06:36:39.919Z,7.30
2019-04-05T06:39:10.416Z,7.50
2019-04-05T06:41:40.953Z,7.50
2019-04-05T06:44:11.568Z,7.60
2019-04-05T06:46:43.047Z,7.60
2019-04-05T06:49:13.608Z,7.60
2019-04-05T06:51:44.189Z,7.70
2019-04-05T06:54:16.269Z,7.30
2019-04-05T06:56:46.805Z,7.80
2019-04-05T06:59:19.305Z,7.90
2019-04-05T07:01:49.936Z,8.00
2019-04-05T07:04:20.404Z,8.00
2019-04-05T07:06:51.036Z,8.00
2019-04-05T07:09:22.566Z,8.10
2019-04-05T07:11:53.152Z,8.20
2019-04-05T07:14:23.774Z,8.20
2019-04-05T07:16:54.312Z,8.20
2019-04-05T07:19:24.936Z,8.20
2019-04-05T07:21:55.473Z,8.30
2019-04-05T07:24:26.092Z,8.20
2019-04-05T07:29:32.270Z,8.30
2019-04-05T07:32:03.424Z,8.30
2019-04-05T07:34:33.992Z,8.40
2019-04-05T07:37:04.541Z,8.40
2019-04-05T07:39:35.044Z,8.60
2019-04-05T07:42:05.680Z,8.70
2019-04-05T07:44:36.264Z,8.80
2019-04-05T07:47:06.867Z,9.00
2019-04-05T07:49:37.436Z,9.20
2019-04-05T07:52:08.005Z,9.10
2019-04-05T07:54:38.473Z,9.10
2019-04-05T07:57:09.079Z,9.10
2019-04-05T07:59:39.625Z,9.10
2019-04-05T08:02:10.284Z,9.20
2019-04-05T08:04:40.811Z,9.20
2019-04-05T08:07:11.688Z,9.20
2019-04-05T08:09:42.232Z,9.20
2019-04-05T08:12:13.197Z,9.20
2019-04-05T08:14:45.056Z,9.20
2019-04-05T08:17:15.592Z,9.30
2019-04-05T08:19:46.163Z,9.50
2019-04-05T08:22:16.693Z,9.60
2019-04-05T08:24:47.294Z,9.70
2019-04-05T08:27:17.858Z,9.70
2019-04-05T08:29:48.423Z,9.70
2019-04-05T08:32:18.992Z,9.70
2019-04-05T08:37:38.273Z,9.70
2019-04-05T08:40:08.776Z,9.90
2019-04-05T08:42:39.332Z,9.80
2019-04-05T08:45:10.060Z,9.70
2019-04-05T08:47:40.606Z,9.70
2019-04-05T08:50:11.364Z,9.60
2019-04-05T08:52:41.916Z,9.60
2019-04-05T08:55:12.461Z,9.60
2019-04-05T08:57:43.020Z,9.70
2019-04-05T09:00:14.376Z,9.70
2019-04-05T09:02:44.969Z,9.70
2019-04-05T09:05:15.672Z,9.70
2019-04-05T09:07:46.113Z,9.70
2019-04-05T09:10:16.697Z,9.70
2019-04-05T09:15:36.134Z,9.60
2019-04-05T09:18:06.597Z,9.60
2019-04-05T09:20:37.096Z,9.60
2019-04-05T09:23:07.616Z,9.70
2019-04-05T09:25:38.168Z,9.70
2019-04-05T09:28:08.728Z,9.60
2019-04-05T09:30:39.230Z,9.50
2019-04-05T09:33:09.689Z,9.50
2019-04-05T09:35:40.247Z,9.50
2019-04-05T09:38:10.745Z,9.50
2019-04-05T09:40:41.256Z,9.40
2019-04-05T09:43:11.808Z,9.30
2019-04-05T09:45:42.460Z,9.20
2019-04-05T09:48:14.084Z,9.10
2019-04-05T09:50:44.640Z,9.00
2019-04-05T09:53:15.166Z,8.90
2019-04-05T09:55:45.728Z,9.10
2019-04-05T10:01:00.498Z,9.10
2019-04-05T10:03:31.056Z,9.10
2019-04-05T10:06:01.520Z,9.10
2019-04-05T10:08:32.136Z,9.10
2019-04-05T10:11:02.612Z,9.10
2019-04-05T10:13:33.157Z,9.10
2019-04-05T10:16:03.717Z,9.30
2019-04-05T10:18:34.292Z,9.50
2019-04-05T10:21:04.944Z,9.50
2019-04-05T10:23:35.554Z,9.50
2019-04-05T10:26:06.138Z,9.50
2019-04-05T10:28:36.595Z,9.60
2019-04-05T10:31:07.256Z,9.60
2019-04-05T10:33:37.856Z,9.70
2019-04-05T10:36:08.439Z,9.80
2019-04-05T10:38:39.069Z,10.00
2019-04-05T10:41:09.656Z,10.10
2019-04-05T10:43:40.286Z,10.50
2019-04-05T10:46:11.240Z,10.80
2019-04-05T10:48:41.818Z,11.20
2019-04-05T10:51:12.313Z,11.60
2019-04-05T10:53:42.775Z,11.80
2019-04-05T10:56:13.258Z,12.00
2019-04-05T10:58:43.896Z,12.00
2019-04-05T11:01:14.466Z,12.10
2019-04-05T11:03:44.997Z,12.00
2019-04-05T11:06:15.587Z,12.00
2019-04-05T11:08:46.160Z,12.00
2019-04-05T11:11:16.636Z,12.00
2019-04-05T11:13:47.205Z,11.80
2019-04-05T11:16:17.753Z,11.70
2019-04-05T11:18:48.344Z,11.50
2019-04-05T11:21:19.040Z,11.40
2019-04-05T11:23:49.517Z,11.50
2019-04-05T11:26:19.996Z,11.40
2019-04-05T11:28:50.506Z,11.30
2019-04-05T11:37:06.323Z,11.10
2019-04-05T11:39:37.412Z,10.70
2019-04-05T11:42:07.868Z,10.50
2019-04-05T11:44:41.290Z,10.30
2019-04-05T11:47:11.852Z,10.10
2019-04-05T11:49:45.551Z,10.10
2019-04-05T11:52:16.077Z,9.90
2019-04-05T11:54:46.680Z,9.90
2019-04-05T11:57:17.261Z,9.70
2019-04-05T11:59:48.809Z,9.80
2019-04-05T12:02:38.664Z,9.90
2019-04-05T12:05:09.944Z,10.00
2019-04-05T12:07:40.544Z,10.00
2019-04-05T12:10:11.436Z,8.90
2019-04-05T12:12:41.970Z,10.10
2019-04-05T12:15:12.671Z,10.10
2019-04-05T12:17:43.227Z,10.10
2019-04-05T12:20:15.396Z,10.20
2019-04-05T12:22:46.026Z,10.10
2019-04-05T12:25:16.504Z,10.20
2019-04-05T12:27:47.064Z,10.10
2019-04-05T12:30:19.556Z,10.30
2019-04-05T12:32:50.136Z,10.60
2019-04-05T12:35:21.645Z,10.80
2019-04-05T12:37:55.442Z,10.90
2019-04-05T12:40:25.769Z,11.00
2019-04-05T12:42:56.332Z,11.10
2019-04-05T12:45:26.787Z,11.10
2019-04-05T12:47:59.133Z,11.00
2019-04-05T12:50:29.496Z,11.10
2019-04-05T12:53:00.046Z,11.20
2019-04-05T12:55:30.586Z,11.40
2019-04-05T12:58:01.105Z,11.20
2019-04-05T13:00:31.665Z,11.10
2019-04-05T13:03:02.216Z,11.10
2019-04-05T13:05:32.740Z,11.20
2019-04-05T13:08:03.318Z,11.00
2019-04-05T13:10:33.844Z,10.90
2019-04-05T13:13:04.382Z,10.90
2019-04-05T13:15:34.871Z,11.00
2019-04-05T13:18:05.723Z,11.00
2019-04-05T13:20:36.304Z,11.00
2019-04-05T13:23:06.885Z,10.80
2019-04-05T13:25:40.668Z,10.50
2019-04-05T13:28:13.574Z,10.30
2019-04-05T13:30:41.764Z,10.10
2019-04-05T13:33:12.317Z,10.00
2019-04-05T13:35:42.908Z,9.90
2019-04-05T13:38:13.429Z,9.80
2019-04-05T13:40:43.921Z,9.80
2019-04-05T13:43:14.441Z,9.80
2019-04-05T13:45:44.956Z,10.00
2019-04-05T13:48:15.532Z,10.30
2019-04-05T13:50:45.996Z,10.40
2019-04-05T13:53:16.560Z,10.50
2019-04-05T13:55:47.499Z,10.60
2019-04-05T13:58:18.088Z,10.50
2019-04-05T14:00:49.656Z,10.40
2019-04-05T14:03:20.949Z,10.40
2019-04-05T14:05:54.015Z,10.30
2019-04-05T14:08:23.780Z,10.30
2019-04-05T14:10:54.377Z,10.10
2019-04-05T14:13:24.869Z,10.20
2019-04-05T14:15:55.476Z,10.20
2019-04-05T14:18:25.977Z,10.20
2019-04-05T14:20:56.537Z,10.30
2019-04-05T14:23:27.029Z,10.40
2019-04-05T14:25:59.895Z,10.60
2019-04-05T14:28:29.800Z,10.50
2019-04-05T14:31:02.266Z,10.10
2019-04-05T14:33:32.644Z,10.00
2019-04-05T14:36:03.244Z,10.00
2019-04-05T14:38:33.856Z,10.20
2019-04-05T14:41:04.628Z,10.30
2019-04-05T14:43:37.712Z,10.40
2019-04-05T14:46:07.393Z,10.40
2019-04-05T14:48:37.975Z,10.40
2019-04-05T14:51:08.532Z,10.40
2019-04-05T14:53:39.116Z,10.30
2019-04-05T14:56:09.714Z,10.30
2019-04-05T14:58:40.234Z,10.20
2019-04-05T15:01:10.774Z,10.20
2019-04-05T15:03:42.317Z,10.20
2019-04-05T15:06:12.960Z,10.30
2019-04-05T15:08:43.513Z,10.40
2019-04-05T15:11:14.134Z,10.40
2019-04-05T15:13:44.773Z,10.50
2019-04-05T15:16:15.363Z,10.50
2019-04-05T15:18:45.920Z,10.40
2019-04-05T15:21:16.589Z,10.30
2019-04-05T15:23:47.148Z,10.30
2019-04-05T15:26:20.574Z,10.40
2019-04-05T15:28:49.909Z,10.50
2019-04-05T15:31:20.430Z,10.50
2019-04-05T15:33:51.005Z,10.50
2019-04-05T15:36:21.580Z,10.40
2019-04-05T15:38:52.137Z,10.40
2019-04-05T15:41:22.772Z,10.50
2019-04-05T15:43:53.347Z,10.30
2019-04-05T15:46:23.937Z,10.30
2019-04-05T15:48:54.526Z,10.30
2019-04-05T15:51:25.075Z,10.30
2019-04-05T15:53:55.673Z,10.30
2019-04-05T15:56:26.656Z,10.30
2019-04-05T15:58:57.208Z,10.30
2019-04-05T16:01:27.716Z,10.30
2019-04-05T16:04:00.566Z,10.20
2019-04-05T16:06:31.493Z,10.30
2019-04-05T16:09:03.413Z,10.40
2019-04-05T16:11:34.570Z,10.40
2019-04-05T16:14:05.156Z,10.40
2019-04-05T16:16:35.782Z,10.20
2019-04-05T16:19:06.465Z,10.20
2019-04-05T16:21:36.940Z,10.20
2019-04-05T16:24:07.428Z,10.30
2019-04-05T16:26:37.971Z,10.30
2019-04-05T16:29:08.528Z,10.40
2019-04-05T16:31:39.053Z,10.40
2019-04-05T16:34:09.632Z,10.40
2019-04-05T16:36:40.176Z,10.50
2019-04-05T16:39:16.325Z,10.50
2019-04-05T16:41:46.929Z,10.50
2019-04-05T16:44:17.557Z,10.40
2019-04-05T16:46:48.156Z,10.40
2019-04-05T16:49:18.740Z,10.40
2019-04-05T16:51:49.312Z,10.40
2019-04-05T16:54:20.081Z,10.50
2019-04-05T16:56:50.665Z,10.50
2019-04-05T16:59:21.248Z,10.50
2019-04-05T17:01:51.816Z,10.50
2019-04-05T17:04:22.372Z,10.50
2019-04-05T17:06:52.938Z,10.50
2019-04-05T17:09:23.501Z,10.50
2019-04-05T17:11:54.129Z,10.50
2019-04-05T17:14:24.610Z,10.40
2019-04-05T17:16:55.192Z,10.50
2019-04-05T17:19:25.824Z,10.40
2019-04-05T17:21:57.360Z,10.50
2019-04-05T17:24:27.955Z,10.40
2019-04-05T17:26:58.495Z,10.40
2019-04-05T17:29:29.048Z,10.40
2019-04-05T17:31:59.612Z,10.40
2019-04-05T17:34:30.180Z,10.30
2019-04-05T17:37:00.736Z,10.30
2019-04-05T17:39:31.303Z,10.30
2019-04-05T17:42:01.903Z,10.40
2019-04-05T17:47:15.192Z,10.30
2019-04-05T17:49:45.734Z,10.30
2019-04-05T17:52:16.290Z,10.30
2019-04-05T17:54:46.913Z,10.20
2019-04-05T17:57:17.658Z,10.40
2019-04-05T17:59:48.321Z,10.30
2019-04-05T18:02:18.980Z,10.20
2019-04-05T18:04:49.650Z,10.10
2019-04-05T18:07:21.705Z,10.00
2019-04-05T18:09:52.268Z,10.00
2019-04-05T18:14:58.330Z,9.90
2019-04-05T18:17:28.788Z,9.80
2019-04-05T18:19:59.461Z,9.90
2019-04-05T18:22:30.024Z,9.80
2019-04-05T18:25:00.587Z,9.70
2019-04-05T18:27:32.976Z,9.80
2019-04-05T18:30:03.553Z,9.80
2019-04-05T18:32:34.176Z,9.60
2019-04-05T18:35:05.013Z,9.50
2019-04-05T18:37:35.637Z,9.50
2019-04-05T18:40:06.317Z,9.40
2019-04-05T18:42:36.907Z,9.40
2019-04-05T18:45:08.107Z,9.50
2019-04-05T18:47:38.657Z,9.40
2019-04-05T18:50:09.481Z,9.50
2019-04-05T18:52:40.008Z,9.50
2019-04-05T18:55:10.576Z,9.30
2019-04-05T18:57:41.139Z,9.30
2019-04-05T19:00:11.863Z,9.20
2019-04-05T19:02:42.445Z,9.30
2019-04-05T19:05:14.455Z,9.30
2019-04-05T19:07:45.004Z,9.20
2019-04-05T19:10:15.744Z,9.10
2019-04-05T19:15:29.191Z,9.10
2019-04-05T19:17:59.769Z,9.10
2019-04-05T19:20:30.316Z,9.10
2019-04-05T19:23:00.813Z,9.20
2019-04-05T19:25:31.349Z,9.30
2019-04-05T19:28:01.937Z,9.30
2019-04-05T19:48:35.157Z,9.30
2019-04-05T19:50:49.957Z,9.30
2019-04-05T19:53:20.554Z,9.30
2019-04-05T19:55:51.093Z,9.20
2019-04-05T19:58:21.633Z,9.20
2019-04-05T20:00:52.187Z,9.20
2019-04-05T20:03:22.740Z,9.20
2019-04-05T20:08:42.309Z,9.30
2019-04-05T20:11:12.881Z,9.30
2019-04-05T20:13:43.588Z,9.20
2019-04-05T20:16:14.120Z,9.00
2019-04-05T20:18:44.740Z,9.00
2019-04-05T20:21:15.294Z,8.90
2019-04-05T20:23:47.675Z,9.00
2019-04-05T20:26:18.006Z,8.90
2019-04-05T20:28:48.577Z,8.90
2019-04-05T20:31:19.048Z,8.90
2019-04-05T20:33:49.667Z,9.00
2019-04-05T20:36:20.403Z,9.10
2019-04-05T20:38:52.785Z,9.00
2019-04-05T20:41:24.374Z,8.90
2019-04-05T20:43:54.958Z,8.80
2019-04-05T20:46:25.544Z,8.80
2019-04-05T20:48:56.080Z,8.90
2019-04-05T20:51:26.688Z,8.90
2019-04-05T20:53:57.297Z,9.00
2019-04-05T20:56:27.904Z,8.90
2019-04-05T20:58:58.469Z,8.90
2019-04-05T21:01:29.108Z,8.90
2019-04-05T21:03:59.680Z,8.90
2019-04-05T21:06:31.253Z,8.90
2019-04-05T21:09:01.761Z,8.80
2019-04-05T21:11:33.871Z,8.90
2019-04-05T21:14:04.474Z,8.80
2019-04-05T21:16:34.985Z,8.90
2019-04-05T21:19:05.684Z,8.80
2019-04-05T21:21:36.261Z,8.70
2019-04-05T21:24:06.925Z,8.90
2019-04-05T21:26:37.456Z,8.80
2019-04-05T21:29:08.062Z,8.70
2019-04-05T21:31:38.673Z,8.70
2019-04-05T21:34:09.224Z,8.70
2019-04-05T21:36:39.823Z,8.60
2019-04-05T21:39:10.392Z,8.60
2019-04-05T21:41:41.058Z,8.70
2019-04-05T21:44:11.627Z,8.60
2019-04-05T21:46:42.205Z,8.60
2019-04-05T21:49:12.756Z,8.60
2019-04-05T21:51:43.417Z,8.70
2019-04-05T21:54:13.929Z,8.70
2019-04-05T21:56:45.610Z,8.80
2019-04-05T21:59:16.361Z,8.70
2019-04-05T22:01:47.249Z,8.60
2019-04-05T22:07:00.576Z,8.60
2019-04-05T22:09:31.168Z,8.80
2019-04-05T22:12:01.889Z,8.70
2019-04-05T22:14:35.625Z,8.70
2019-04-05T22:17:06.303Z,8.70
2019-04-05T22:19:37.022Z,8.70
2019-04-05T22:22:07.609Z,8.60
2019-04-05T22:24:38.251Z,8.60
2019-04-05T22:27:08.965Z,8.50
2019-04-05T22:29:39.527Z,8.50
2019-04-05T22:32:11.657Z,8.50
2019-04-05T22:34:42.326Z,8.50
2019-04-05T22:37:13.057Z,8.50
2019-04-05T22:39:43.571Z,8.60
2019-04-05T22:42:14.161Z,8.50
2019-04-05T22:44:44.833Z,8.50
2019-04-05T22:47:15.405Z,8.50
2019-04-05T22:49:46.005Z,8.50
2019-04-05T22:52:16.552Z,8.60
2019-04-05T22:54:47.188Z,8.60
2019-04-05T22:57:17.793Z,8.50
2019-04-05T22:59:48.332Z,8.50
2019-04-05T23:02:18.932Z,8.50
2019-04-05T23:04:49.635Z,8.50
2019-04-05T23:07:20.343Z,8.40
2019-04-05T23:09:50.994Z,8.40
2019-04-05T23:12:21.565Z,8.30
2019-04-05T23:14:52.193Z,8.40
2019-04-05T23:17:22.906Z,8.50
2019-04-05T23:19:53.506Z,8.40
2019-04-05T23:22:24.106Z,8.30
2019-04-05T23:24:54.715Z,8.30
2019-04-05T23:27:25.345Z,8.30
2019-04-05T23:29:55.877Z,8.30
2019-04-05T23:32:26.466Z,8.30
2019-04-05T23:34:57.029Z,8.20
2019-04-05T23:37:27.557Z,8.20
2019-04-05T23:39:58.086Z,8.20
2019-04-05T23:42:28.717Z,8.20
2019-04-05T23:44:59.313Z,8.20
2019-04-05T23:47:29.871Z,8.20
2019-04-05T23:50:00.453Z,8.70
2019-04-05T23:55:33.291Z,8.10
2019-04-05T23:57:59.732Z,8.10
